St. Day, United Kingdom
Current Conditions -  °F | °C
As of 3:50 AM on Thursday 23 Oct 2014 (Local Time) from EGDR Reporting Station
Haze Haze  
Wind Chill: 55°   Ceiling: 2500
Heat Index: 55°   Visibility: 6mi
Dew Point: 52°   Wind: 14mph
Humidity: 88%   Direction: 220°SW
Pressure: 30.18"   Gusts: NA
Location:  50.24°N, 5.19°W
Report Text: EGDR 230250Z 22012KT 9999 HZ FEW020 OVC025 13/11 Q1022 BLU
Loading
Personal Weather Stations






























Interactive Weather Map
Tropical Storm Tracking
New forecast layout! Learn more

10-Day Weather Forecast

Advertisements
Track Severe Weather on mobile